Fayetteville Regional Grannis Field
KFAY : now visible

Airfield :











YOU CAN JOIN US ON...

 
LOGIN :

Register | Disclaimer

   EN    FR    IT 

 









Legend :    VFR   Marginal VFR   IFR   Intensive IFR   Very Intensive IFR
Visi :
Ceiling :
>= 8 km
>= 3000ft
5 to 8 km
1000 to 3000 ft
1500m to 5 km
500 to 1000 ft
800 to 1500m
200 to 500 ft
< 800m
< 200 ft
Symbols :   Thunderstorms  Fog  Heavy snow  Heavy precipitations  Wind > 20 kt






- Airport Elevation : 189 ft
- IATA code : FAY


KFAY - Fayetteville Regional Grannis Field

CURRENT METAR :
  • 091453Z 36011KT 10SM BKN020 OVC028 27/22 A2989 RMK AO2 SLP114 T02720222 50004

EXPIRED METARs :
  • 091353Z 01008KT 10SM BKN017 OVC023 26/22 A2989 RMK AO2 SLP116 T02610222
  • 091313Z 36010KT 10SM SCT013 OVC021 26/22 A2989 RMK AO2 T02560222
  • 091253Z 01009KT 10SM BKN012 OVC021 26/22 A2988 RMK AO2 SLP113 T02560222
  • 091202Z 36008KT 10SM BKN011 OVC018 25/22 A2988 RMK AO2 T02500222

TAF KFAY
Valid from the 09 at 12:00 until the 10 at 12:00 UTC


091134Z 0912/1012 03007KT P6SM SCT007 BKN015
TEMPO 0912/0913 OVC007
FM091530 03007KT P6SM VCSH SCT025 BKN050
FM100000 01003KT P6SM FEW050 SCT150
KZDC FIR / North America



MET'MAP, your aeronautical weather chart ! - Copyright ORBIFLY December 2007 - Disclaimer

ORBIFLY MET'MAP TEAM :

Programming & Development : Alexandra Zaïnal
Concept & original design : Baudouin d'Aumeries
Assistance for programming : Marc-Olivier Méhu
Technical & hardware support : Manuel Goepfert

Contact : metmap@orbifly.com




SOURCES & CREDITS :

   NOAA       Earth
Advisory